createdAt,value
2018-05-12T00:02:11.011Z,62.80
2018-05-12T00:06:13.553Z,63.40
2018-05-12T00:10:16.088Z,67.90
2018-05-12T00:14:18.605Z,64.90
2018-05-12T00:18:21.905Z,62.90
2018-05-12T00:22:25.203Z,65.10
2018-05-12T00:26:27.773Z,65.30
2018-05-12T00:30:30.318Z,63.70
2018-05-12T00:34:32.835Z,64.80
2018-05-12T00:38:35.370Z,63.60
2018-05-12T00:42:37.907Z,64.70
2018-05-12T00:46:40.456Z,64.10
2018-05-12T00:50:42.992Z,63.60
2018-05-12T00:54:45.508Z,66.60
2018-05-12T00:58:48.039Z,64.60
2018-05-12T01:02:50.583Z,63.90
2018-05-12T01:06:53.115Z,64.00
2018-05-12T01:10:55.647Z,64.40
2018-05-12T01:14:58.169Z,64.40
2018-05-12T01:19:00.716Z,63.80
2018-05-12T01:23:09.157Z,63.90
2018-05-12T01:27:11.709Z,64.40
2018-05-12T01:31:14.249Z,64.70
2018-05-12T01:35:16.795Z,64.00
2018-05-12T01:39:19.308Z,64.80
2018-05-12T01:43:21.831Z,65.10
2018-05-12T01:47:24.370Z,65.30
2018-05-12T01:51:26.912Z,63.80
2018-05-12T01:55:30.214Z,64.20
2018-05-12T01:59:33.496Z,64.80
2018-05-12T02:03:36.080Z,64.90
2018-05-12T02:07:39.395Z,65.90
2018-05-12T02:11:42.700Z,65.60
2018-05-12T02:15:46.001Z,64.40
2018-05-12T02:19:49.279Z,65.60
2018-05-12T02:23:51.819Z,65.50
2018-05-12T02:27:54.347Z,64.90
2018-05-12T02:31:56.878Z,64.80
2018-05-12T02:35:59.411Z,65.20
2018-05-12T02:40:01.927Z,64.90
2018-05-12T02:44:05.231Z,65.10
2018-05-12T02:48:08.535Z,64.80
2018-05-12T02:52:11.831Z,65.10
2018-05-12T02:56:14.405Z,65.00
2018-05-12T03:00:17.744Z,66.10
2018-05-12T03:04:20.286Z,66.20
2018-05-12T03:08:22.818Z,65.00
2018-05-12T03:12:25.353Z,65.10
2018-05-12T03:16:27.896Z,65.20
2018-05-12T03:20:30.424Z,66.20
2018-05-12T03:24:32.960Z,65.60
2018-05-12T03:28:35.528Z,65.70
2018-05-12T03:32:38.831Z,65.30
2018-05-12T03:36:42.137Z,67.20
2018-05-12T03:40:45.416Z,65.90
2018-05-12T03:44:47.952Z,65.90
2018-05-12T03:48:50.491Z,65.20
2018-05-12T03:52:53.800Z,66.50
2018-05-12T03:56:57.100Z,66.20
2018-05-12T04:01:00.399Z,66.00
2018-05-12T04:05:15.663Z,66.10
2018-05-12T04:09:29.946Z,66.10
2018-05-12T04:13:34.072Z,66.90
2018-05-12T04:17:37.370Z,66.50
2018-05-12T04:21:40.667Z,65.80
2018-05-12T04:25:43.188Z,65.80
2018-05-12T04:29:45.720Z,66.30
2018-05-12T04:33:48.260Z,66.00
2018-05-12T04:37:50.797Z,65.60
2018-05-12T04:41:53.355Z,65.40
2018-05-12T04:45:55.870Z,64.80
2018-05-12T04:49:58.444Z,65.50
2018-05-12T04:54:00.980Z,65.30
2018-05-12T04:58:03.523Z,66.70
2018-05-12T05:02:06.052Z,65.50
2018-05-12T05:06:08.572Z,65.50
2018-05-12T05:10:11.110Z,65.50
2018-05-12T05:14:14.415Z,66.50
2018-05-12T05:18:16.948Z,66.50
2018-05-12T05:22:19.488Z,67.10
2018-05-12T05:26:22.014Z,66.00
2018-05-12T05:30:24.553Z,66.10
2018-05-12T05:34:27.102Z,66.80
2018-05-12T05:38:29.643Z,67.40
2018-05-12T05:42:32.204Z,66.10
2018-05-12T05:46:35.486Z,65.50
2018-05-12T05:50:38.797Z,68.60
2018-05-12T05:54:42.100Z,66.90
2018-05-12T05:58:45.400Z,69.90
2018-05-12T06:02:47.947Z,70.00
2018-05-12T06:06:50.483Z,68.30
2018-05-12T06:10:53.036Z,69.50
2018-05-12T06:14:55.570Z,69.40
2018-05-12T06:18:58.119Z,73.20
2018-05-12T06:23:01.414Z,67.10
2018-05-12T06:27:03.928Z,67.70
2018-05-12T06:31:06.461Z,68.10
2018-05-12T06:35:08.996Z,66.00
2018-05-12T06:39:11.530Z,67.20
2018-05-12T06:43:14.081Z,66.20
2018-05-12T06:47:16.602Z,66.40
2018-05-12T06:51:19.144Z,72.00
2018-05-12T06:55:21.676Z,67.10
2018-05-12T06:59:24.212Z,66.60
2018-05-12T07:03:26.743Z,66.20
2018-05-12T07:07:29.265Z,69.30
2018-05-12T07:11:32.572Z,66.90
2018-05-12T07:15:35.108Z,66.80
2018-05-12T07:19:37.664Z,66.90
2018-05-12T07:23:40.228Z,66.60
2018-05-12T07:27:43.528Z,68.70
2018-05-12T07:31:47.167Z,66.90
2018-05-12T07:35:49.747Z,67.20
2018-05-12T07:39:52.294Z,69.30
2018-05-12T07:43:54.829Z,68.00
2018-05-12T07:47:57.385Z,67.90
2018-05-12T07:51:59.899Z,66.60
2018-05-12T07:56:02.439Z,67.80
2018-05-12T08:00:05.971Z,66.90
2018-05-12T08:04:08.599Z,67.10
2018-05-12T08:08:11.161Z,66.60
2018-05-12T08:12:14.634Z,67.80
2018-05-12T08:16:18.223Z,68.10
2018-05-12T08:20:21.545Z,69.60
2018-05-12T08:24:24.097Z,70.20
2018-05-12T08:28:26.639Z,66.80
2018-05-12T08:32:29.151Z,66.90
2018-05-12T08:36:31.684Z,66.60
2018-05-12T08:40:34.255Z,68.40
2018-05-12T08:44:36.776Z,71.00
2018-05-12T08:48:39.312Z,69.00
2018-05-12T08:52:43.377Z,68.80
2018-05-12T08:56:45.920Z,68.00
2018-05-12T09:00:48.460Z,66.50
2018-05-12T09:04:50.996Z,68.20
2018-05-12T09:08:54.323Z,67.50
2018-05-12T09:12:56.855Z,67.40
2018-05-12T09:16:59.379Z,67.60
2018-05-12T09:21:01.920Z,67.20
2018-05-12T09:25:04.451Z,66.80
2018-05-12T09:29:07.748Z,67.60
2018-05-12T09:33:10.264Z,67.50
2018-05-12T09:37:12.867Z,67.60
2018-05-12T09:41:16.136Z,68.00
2018-05-12T09:45:19.437Z,67.50
2018-05-12T09:49:22.768Z,67.00
2018-05-12T09:53:25.288Z,66.90
2018-05-12T09:57:27.830Z,67.10
2018-05-12T10:01:30.369Z,66.90
2018-05-12T10:05:32.900Z,66.60
2018-05-12T10:09:35.467Z,66.50
2018-05-12T10:13:38.759Z,65.40
2018-05-12T10:17:42.063Z,64.30
2018-05-12T10:21:45.370Z,65.20
2018-05-12T10:25:47.910Z,65.10
2018-05-12T10:29:50.441Z,64.80
2018-05-12T10:33:53.745Z,63.10
2018-05-12T10:43:03.048Z,61.70
2018-05-12T10:47:05.587Z,61.80
2018-05-12T10:51:08.131Z,62.30
2018-05-12T10:55:10.680Z,62.70
2018-05-12T10:59:13.247Z,60.30
2018-05-12T11:03:16.537Z,59.80
2018-05-12T11:07:19.069Z,59.70
2018-05-12T11:11:21.609Z,61.00
2018-05-12T11:15:24.152Z,60.10
2018-05-12T11:19:26.701Z,61.30
2018-05-12T11:23:29.975Z,61.20
2018-05-12T11:27:32.521Z,61.10
2018-05-12T11:31:35.052Z,60.70
2018-05-12T11:35:37.584Z,61.00
2018-05-12T11:39:40.119Z,60.70
2018-05-12T11:43:42.644Z,60.40
2018-05-12T11:47:45.189Z,59.60
2018-05-12T11:51:47.727Z,59.30
2018-05-12T11:55:50.251Z,58.20
2018-05-12T11:59:52.783Z,59.50
2018-05-12T12:03:55.298Z,59.10
2018-05-12T12:07:57.839Z,58.50
2018-05-12T12:12:01.159Z,57.60
2018-05-12T12:16:03.712Z,57.60
2018-05-12T12:20:07.010Z,57.90
2018-05-12T12:24:09.519Z,57.60
2018-05-12T12:28:12.258Z,55.20
2018-05-12T12:32:14.788Z,56.70
2018-05-12T12:36:18.083Z,57.20
2018-05-12T12:40:21.389Z,56.90
2018-05-12T12:44:25.415Z,55.40
2018-05-12T12:48:28.714Z,56.70
2018-05-12T12:52:32.012Z,55.60
2018-05-12T12:56:35.306Z,57.50
2018-05-12T13:00:38.599Z,57.90
2018-05-12T13:04:41.130Z,57.30
2018-05-12T13:08:43.648Z,56.50
2018-05-12T13:12:46.979Z,55.20
2018-05-12T13:16:49.516Z,54.80
2018-05-12T13:20:52.070Z,54.60
2018-05-12T13:24:54.611Z,56.50
2018-05-12T13:28:57.123Z,57.90
2018-05-12T13:32:59.647Z,57.30
2018-05-12T13:37:02.177Z,56.40
2018-05-12T13:41:04.716Z,56.90
2018-05-12T13:45:07.249Z,56.50
2018-05-12T13:49:09.759Z,56.10
2018-05-12T13:53:13.064Z,58.40
2018-05-12T13:57:15.603Z,57.70
2018-05-12T14:01:18.136Z,56.70
2018-05-12T14:05:20.666Z,57.60
2018-05-12T14:09:23.188Z,57.60
2018-05-12T14:13:26.492Z,56.40
2018-05-12T14:17:29.791Z,56.10
2018-05-12T14:21:33.360Z,56.50
2018-05-12T14:25:35.928Z,56.50
2018-05-12T14:29:38.452Z,57.80
2018-05-12T14:33:40.984Z,57.10
2018-05-12T14:37:43.529Z,57.40
2018-05-12T14:41:46.067Z,57.00
2018-05-12T14:45:49.375Z,56.70
2018-05-12T14:49:51.891Z,56.80
2018-05-12T14:53:54.423Z,56.50
2018-05-12T14:57:56.955Z,57.20
2018-05-12T15:01:59.536Z,54.70
2018-05-12T15:06:02.044Z,57.00
2018-05-12T15:10:04.580Z,57.40
2018-05-12T15:14:07.123Z,57.80
2018-05-12T15:18:09.671Z,57.80
2018-05-12T15:22:12.212Z,57.60
2018-05-12T15:26:15.512Z,57.10
2018-05-12T15:30:18.055Z,56.90
2018-05-12T15:34:20.583Z,57.50
2018-05-12T15:38:23.127Z,57.10
2018-05-12T15:42:25.787Z,55.60
2018-05-12T15:46:28.328Z,57.80
2018-05-12T15:50:31.631Z,57.30
2018-05-12T15:54:34.919Z,57.00
2018-05-12T15:58:37.455Z,56.90
2018-05-12T16:02:40.001Z,57.70
2018-05-12T16:06:43.311Z,57.50
2018-05-12T16:10:45.851Z,57.30
2018-05-12T16:14:48.456Z,57.10
2018-05-12T16:18:53.712Z,56.70
2018-05-12T16:22:56.310Z,56.20
2018-05-12T16:26:58.844Z,57.00
2018-05-12T16:31:01.388Z,58.10
2018-05-12T16:35:04.689Z,57.30
2018-05-12T16:39:07.243Z,57.30
2018-05-12T16:43:09.782Z,58.10
2018-05-12T16:47:12.331Z,58.30
2018-05-12T16:51:15.764Z,58.20
2018-05-12T16:55:18.287Z,58.10
2018-05-12T16:59:20.847Z,57.60
2018-05-12T17:03:23.387Z,57.50
2018-05-12T17:07:25.928Z,57.80
2018-05-12T17:11:28.474Z,58.20
2018-05-12T17:15:31.755Z,58.10
2018-05-12T17:19:34.295Z,58.00
2018-05-12T17:23:36.831Z,58.20
2018-05-12T17:27:40.139Z,59.00
2018-05-12T17:31:43.435Z,58.40
2018-05-12T17:35:45.955Z,58.40
2018-05-12T17:39:48.491Z,58.60
2018-05-12T17:43:51.036Z,58.80
2018-05-12T17:47:53.596Z,58.80
2018-05-12T17:51:56.134Z,58.80
2018-05-12T17:55:58.651Z,59.20
2018-05-12T18:00:01.959Z,59.40
2018-05-12T18:04:05.260Z,59.90
2018-05-12T18:08:08.578Z,59.70
2018-05-12T18:12:11.115Z,59.80
2018-05-12T18:16:13.657Z,59.90
2018-05-12T18:20:16.187Z,59.60
2018-05-12T18:24:18.728Z,59.50
2018-05-12T18:28:21.268Z,60.20
2018-05-12T18:32:23.800Z,60.20
2018-05-12T18:36:26.341Z,59.90
2018-05-12T18:40:28.861Z,60.10
2018-05-12T18:44:31.400Z,60.20
2018-05-12T18:48:33.950Z,60.70
2018-05-12T18:52:36.488Z,60.70
2018-05-12T18:56:39.110Z,60.90
2018-05-12T19:00:42.860Z,60.60
2018-05-12T19:04:45.418Z,61.00
2018-05-12T19:08:47.964Z,60.60
2018-05-12T19:12:51.347Z,61.10
2018-05-12T19:16:53.913Z,61.00
2018-05-12T19:20:56.464Z,60.80
2018-05-12T19:24:59.035Z,61.30
2018-05-12T19:29:02.359Z,60.60
2018-05-12T19:33:04.921Z,60.70
2018-05-12T19:37:08.256Z,61.60
2018-05-12T19:41:10.777Z,61.50
2018-05-12T19:45:13.328Z,61.90
2018-05-12T19:49:15.891Z,61.60
2018-05-12T19:53:18.431Z,62.50
2018-05-12T19:57:20.976Z,62.00
2018-05-12T20:01:23.505Z,61.90
2018-05-12T20:05:26.046Z,62.50
2018-05-12T20:09:28.582Z,61.80
2018-05-12T20:13:31.119Z,62.30
2018-05-12T20:17:33.671Z,62.30
2018-05-12T20:21:36.210Z,62.70
2018-05-12T20:25:38.776Z,62.80
2018-05-12T20:29:41.304Z,63.20
2018-05-12T20:33:43.855Z,63.10
2018-05-12T20:37:46.387Z,64.10
2018-05-12T20:41:49.680Z,63.10
2018-05-12T20:45:52.211Z,63.00
2018-05-12T20:49:55.512Z,63.30
2018-05-12T20:53:58.047Z,63.50
2018-05-12T20:58:00.608Z,63.70
2018-05-12T21:02:03.200Z,62.70
2018-05-12T21:06:05.707Z,62.80
2018-05-12T21:10:08.248Z,62.10
2018-05-12T21:14:10.861Z,66.20
2018-05-12T21:18:13.357Z,63.20
2018-05-12T21:22:15.890Z,64.10
2018-05-12T21:26:18.418Z,63.20
2018-05-12T21:30:21.903Z,63.40
2018-05-12T21:34:24.471Z,62.50
2018-05-12T21:38:27.019Z,63.90
2018-05-12T21:42:30.320Z,62.50
2018-05-12T21:46:32.868Z,62.60
2018-05-12T21:50:35.403Z,65.20
2018-05-12T21:54:38.704Z,62.80
2018-05-12T21:58:42.007Z,63.00
2018-05-12T22:02:44.551Z,63.00
2018-05-12T22:06:47.074Z,63.20
2018-05-12T22:10:50.383Z,62.90
2018-05-12T22:14:53.689Z,64.70
2018-05-12T22:18:56.995Z,63.70
2018-05-12T22:22:59.536Z,63.70
2018-05-12T22:27:02.052Z,64.10
2018-05-12T22:31:05.351Z,64.30
2018-05-12T22:35:08.651Z,64.50
2018-05-12T22:39:11.961Z,63.70
2018-05-12T22:43:14.496Z,63.60
2018-05-12T22:47:17.062Z,64.00
2018-05-12T22:51:20.323Z,64.20
2018-05-12T22:55:23.625Z,64.20
2018-05-12T22:59:26.954Z,65.00
2018-05-12T23:03:29.493Z,65.60
2018-05-12T23:07:32.017Z,65.80
2018-05-12T23:11:34.547Z,65.50
2018-05-12T23:15:37.083Z,66.00
2018-05-12T23:19:40.392Z,67.90
2018-05-12T23:23:42.955Z,68.30
2018-05-12T23:27:46.244Z,65.50
2018-05-12T23:31:48.783Z,64.60
2018-05-12T23:35:51.319Z,65.60
2018-05-12T23:39:53.867Z,65.10
2018-05-12T23:43:56.410Z,67.60
2018-05-12T23:47:59.720Z,65.50
2018-05-12T23:52:02.235Z,65.40
2018-05-12T23:56:04.768Z,64.70
